Flag for France

Past Weather in 47°19'26.0"N, 5°02'34.0"E, France — Yesterday and Last 2 Weeks

Currently: 59 °F. Clear. (Weather station: Dijon Airport, France). See more current weather

Past Weather in 47°19'26.0"N, 5°02'34.0"E — Graph

°F

47°19'26.0"N, 5°02'34.0"E Temperature Yesterday

Maximum temperature yesterday: 75 °F (at 12:30 pm)
Minimum temperature yesterday: 50 °F (at 6:00 am)
Average temperature yesterday: 65 °F

High & Low Weather Summary for the Past Weeks

 TemperatureHumidityPressure
High88 °F (Jul 9, 2:30 pm)100% (Jul 1, 2:00 am)30.09 "Hg (Jul 1, 2:00 am)
Low50 °F (Jul 7, 4:00 am)37% (Jul 8, 5:00 pm)29.74 "Hg (Jul 6, 3:30 am)
Average66 °F75%29.97 "Hg
* Reported Jun 30 3:00 am — Jul 15 3:00 am, 47°19'26.0"N, 5°02'34.0"E. Weather by CustomWeather, © 2024

Note: Actual official high and low records may vary slightly from our data, if they occured in-between our weather recording intervals... More about our weather records

47°19'26.0"N, 5°02'34.0"E Weather History for the Previous 24 Hours

Scroll right to see more
 ConditionsComfort  
Time TempWeatherWind HumidityBarometerVisibility
3:00 am
Mon, Jul 15
59 °FClear.5 mph88%29.92 "Hg10 mi
2:30 am61 °FClear.3 mph83%29.92 "Hg10 mi
2:00 am61 °FClear.3 mph83%29.92 "Hg5 mi
1:30 am61 °FFog.5 mph88%29.95 "Hg3 mi
1:00 am63 °FFog.3 mph83%29.95 "Hg3 mi
12:30 am63 °FClear.5 mph83%29.95 "Hg4 mi
12:00 am61 °FClear.2 mph88%29.95 "Hg10 mi
11:30 pm
Sun, Jul 14
61 °FClear.2 mph83%29.95 "Hg10 mi
11:00 pm63 °FClear.2 mph83%29.95 "Hg10 mi
10:30 pm63 °FClear.2 mph83%29.95 "Hg10 mi
10:00 pm64 °FClear.2 mph78%29.95 "HgN/A
9:30 pm68 °FSunny.3 mph69%29.92 "Hg10 mi
9:00 pm72 °FSunny.2 mph65%29.92 "Hg10 mi
8:30 pm72 °FSunny.2 mph61%29.92 "Hg10 mi
8:00 pm72 °FSunny.3 mph61%29.95 "Hg10 mi
7:30 pm72 °FSunny.2 mph57%29.92 "Hg10 mi
7:00 pm73 °FSunny.2 mph53%29.92 "Hg10 mi
6:00 pm73 °FSunny.3 mph47%29.92 "Hg10 mi
5:30 pm75 °FSunny.3 mph44%29.95 "Hg10 mi
5:00 pm75 °FSunny.2 mph44%29.92 "Hg10 mi
4:00 pm75 °FSunny.2 mph44%29.95 "Hg10 mi
3:30 pm75 °FPassing clouds.3 mph44%29.95 "HgN/A
2:30 pm75 °FSunny.3 mph44%29.92 "Hg10 mi
2:00 pm73 °FPassing clouds.5 mph47%29.92 "HgN/A
1:30 pm73 °FSunny.2 mph50%29.95 "Hg10 mi
1:00 pm73 °FSunny.2 mph47%29.95 "Hg10 mi
12:30 pm75 °FPassing clouds.3 mph47%29.95 "HgN/A
12:00 pm73 °FPassing clouds.5 mph47%29.95 "HgN/A
11:30 am73 °FPassing clouds.5 mph50%29.95 "HgN/A
11:00 am72 °FPassing clouds.5 mph57%29.95 "HgN/A
10:30 am70 °FPassing clouds.5 mph60%29.95 "HgN/A
10:00 am68 °FPassing clouds.3 mph64%29.98 "HgN/A
9:30 am64 °FPassing clouds.5 mph73%29.98 "HgN/A
9:00 am64 °FPassing clouds.5 mph68%29.95 "HgN/A
8:30 am61 °FPassing clouds.5 mph77%29.95 "HgN/A
8:00 am59 °FSunny.2 mph82%29.95 "Hg10 mi
7:30 am57 °FSunny.2 mph82%29.95 "Hg10 mi
7:00 am54 °FSunny.2 mph88%29.95 "Hg10 mi
6:30 am50 °FSunny.5 mph100%29.95 "Hg10 mi
6:00 am50 °FPassing clouds.1 mph94%29.95 "HgN/A
5:30 am52 °FClear.2 mph88%29.95 "Hg6 mi
5:00 am54 °FClear.3 mph88%29.95 "Hg10 mi
4:30 am54 °FClear.3 mph88%29.95 "Hg10 mi
4:00 am55 °FClear.5 mph82%29.95 "Hg10 mi
Weather by CustomWeather, © 2024

See weather overview